createdAt,value
2023-05-17T00:00:32.683Z,111.87
2023-05-17T00:01:32.697Z,113.82
2023-05-17T00:02:32.756Z,110.12
2023-05-17T00:03:32.733Z,111.81
2023-05-17T00:04:32.750Z,109.68
2023-05-17T00:05:32.768Z,111.01
2023-05-17T00:06:32.906Z,111.22
2023-05-17T00:07:32.818Z,112.31
2023-05-17T00:08:32.836Z,110.66
2023-05-17T00:09:32.875Z,109.87
2023-05-17T00:10:32.903Z,109.26
2023-05-17T00:11:32.929Z,110.15
2023-05-17T00:12:33.136Z,111.43
2023-05-17T00:13:32.991Z,111.87
2023-05-17T00:14:33.021Z,109.44
2023-05-17T00:15:33.230Z,108.76
2023-05-17T00:16:33.258Z,110.68
2023-05-17T00:17:33.286Z,106.68
2023-05-17T00:18:33.432Z,107.98
2023-05-17T00:19:33.293Z,108.86
2023-05-17T00:20:33.341Z,107.56
2023-05-17T00:21:33.379Z,108.16
2023-05-17T00:22:33.413Z,108.52
2023-05-17T00:23:33.438Z,105.77
2023-05-17T00:24:33.465Z,106.89
2023-05-17T00:25:33.491Z,108.64
2023-05-17T00:26:33.597Z,105.95
2023-05-17T00:27:33.672Z,107.01
2023-05-17T00:28:33.691Z,108.12
2023-05-17T00:29:33.713Z,107.41
2023-05-17T00:30:33.742Z,107.85
2023-05-17T00:31:33.760Z,106.14
2023-05-17T00:32:33.825Z,108.77
2023-05-17T00:33:33.829Z,106.28
2023-05-17T00:34:33.894Z,108.08
2023-05-17T00:35:33.884Z,105.73
2023-05-17T00:36:33.909Z,106.47
2023-05-17T00:37:33.945Z,104.85
2023-05-17T00:38:34.024Z,104.96
2023-05-17T00:39:34.183Z,103.80
2023-05-17T00:40:34.018Z,103.61
2023-05-17T00:41:34.048Z,105.80
2023-05-17T00:42:34.077Z,104.50
2023-05-17T00:43:34.104Z,105.62
2023-05-17T00:44:34.148Z,101.82
2023-05-17T00:45:34.171Z,104.33
2023-05-17T00:46:34.199Z,101.52
2023-05-17T00:47:34.378Z,101.80
2023-05-17T00:48:34.430Z,103.34
2023-05-17T00:49:34.399Z,105.42
2023-05-17T00:50:34.444Z,100.53
2023-05-17T00:51:34.461Z,103.80
2023-05-17T00:52:34.580Z,102.27
2023-05-17T00:53:34.728Z,102.79
2023-05-17T00:54:34.739Z,101.72
2023-05-17T00:55:34.845Z,101.24
2023-05-17T00:56:34.805Z,100.90
2023-05-17T00:57:34.840Z,101.89
2023-05-17T00:58:34.876Z,99.24
2023-05-17T00:59:35.000Z,99.70
2023-05-17T01:00:35.026Z,102.74
2023-05-17T01:01:35.054Z,100.33
2023-05-17T01:02:35.157Z,101.22
2023-05-17T01:03:35.229Z,102.28
2023-05-17T01:04:35.194Z,97.60
2023-05-17T01:05:35.314Z,97.80
2023-05-17T01:06:35.355Z,98.60
2023-05-17T01:07:35.390Z,98.09
2023-05-17T01:08:35.441Z,98.81
2023-05-17T01:09:35.459Z,97.63
2023-05-17T01:10:35.480Z,97.78
2023-05-17T01:11:35.623Z,94.89
2023-05-17T01:12:35.573Z,95.87
2023-05-17T01:13:35.608Z,95.45
2023-05-17T01:14:35.641Z,97.68
2023-05-17T01:15:35.712Z,96.23
2023-05-17T01:16:35.760Z,95.61
2023-05-17T01:17:35.881Z,98.01
2023-05-17T01:18:35.912Z,96.81
2023-05-17T01:19:35.865Z,98.36
2023-05-17T01:20:35.946Z,96.80
2023-05-17T01:21:35.961Z,97.21
2023-05-17T01:22:35.988Z,96.26
2023-05-17T01:23:36.059Z,96.33
2023-05-17T01:24:36.061Z,92.80
2023-05-17T01:25:36.111Z,93.72
2023-05-17T01:26:36.222Z,95.36
2023-05-17T01:27:36.341Z,94.57
2023-05-17T01:28:36.287Z,96.68
2023-05-17T01:29:36.311Z,93.59
2023-05-17T01:30:36.340Z,92.34
2023-05-17T01:31:36.370Z,95.18
2023-05-17T01:32:36.451Z,94.96
2023-05-17T01:33:36.491Z,95.32
2023-05-17T01:34:36.455Z,93.03
2023-05-17T01:35:36.478Z,94.67
2023-05-17T01:36:36.521Z,91.92
2023-05-17T01:37:36.546Z,94.98
2023-05-17T01:38:36.601Z,91.66
2023-05-17T01:39:36.606Z,93.55
2023-05-17T01:40:36.675Z,91.82
2023-05-17T01:41:36.753Z,92.90
2023-05-17T01:42:36.760Z,91.47
2023-05-17T01:43:36.800Z,90.85
2023-05-17T01:44:36.814Z,91.15
2023-05-17T01:45:36.856Z,91.44
2023-05-17T01:46:36.870Z,90.47
2023-05-17T01:47:36.923Z,88.50
2023-05-17T01:48:36.952Z,92.38
2023-05-17T01:49:36.972Z,91.21
2023-05-17T01:50:36.995Z,90.64
2023-05-17T01:51:37.039Z,91.53
2023-05-17T01:52:37.071Z,88.38
2023-05-17T01:53:37.105Z,90.16
2023-05-17T01:54:37.129Z,91.17
2023-05-17T01:55:37.155Z,86.30
2023-05-17T01:56:37.231Z,85.67
2023-05-17T01:57:37.266Z,87.98
2023-05-17T01:58:37.293Z,89.18
2023-05-17T01:59:37.570Z,88.75
2023-05-17T02:00:37.360Z,87.92
2023-05-17T02:01:37.554Z,89.66
2023-05-17T02:02:37.595Z,85.27
2023-05-17T02:03:37.685Z,90.25
2023-05-17T02:04:37.651Z,85.54
2023-05-17T02:05:37.678Z,88.46
2023-05-17T02:06:37.748Z,86.56
2023-05-17T02:07:37.772Z,87.46
2023-05-17T02:08:37.796Z,87.51
2023-05-17T02:09:37.848Z,87.20
2023-05-17T02:10:37.872Z,89.16
2023-05-17T02:11:37.900Z,84.17
2023-05-17T02:12:37.945Z,87.66
2023-05-17T02:13:38.029Z,84.63
2023-05-17T02:14:38.008Z,86.51
2023-05-17T02:15:38.155Z,84.29
2023-05-17T02:16:38.091Z,85.10
2023-05-17T02:17:38.196Z,85.06
2023-05-17T02:18:38.308Z,81.83
2023-05-17T02:19:38.264Z,84.23
2023-05-17T02:20:38.229Z,83.84
2023-05-17T02:21:38.271Z,84.00
2023-05-17T02:22:38.340Z,84.35
2023-05-17T02:23:38.355Z,84.97
2023-05-17T02:24:38.380Z,83.41
2023-05-17T02:25:38.523Z,83.68
2023-05-17T02:26:38.605Z,83.92
2023-05-17T02:27:38.645Z,84.74
2023-05-17T02:28:38.682Z,81.13
2023-05-17T02:29:38.714Z,81.59
2023-05-17T02:30:38.743Z,81.77
2023-05-17T02:31:39.054Z,84.37
2023-05-17T02:32:39.149Z,83.50
2023-05-17T02:33:39.190Z,84.22
2023-05-17T02:34:39.092Z,82.41
2023-05-17T02:35:39.133Z,81.45
2023-05-17T02:36:39.188Z,81.57
2023-05-17T02:37:39.317Z,83.46
2023-05-17T02:38:39.465Z,80.57
2023-05-17T02:39:39.580Z,83.57
2023-05-17T02:40:39.604Z,79.60
2023-05-17T02:41:39.646Z,80.25
2023-05-17T02:42:39.676Z,78.35
2023-05-17T02:43:39.708Z,80.03
2023-05-17T02:44:39.749Z,79.97
2023-05-17T02:45:39.820Z,79.64
2023-05-17T02:46:39.853Z,79.45
2023-05-17T02:47:40.040Z,79.61
2023-05-17T02:48:39.925Z,78.91
2023-05-17T02:49:39.957Z,81.56
2023-05-17T02:50:40.088Z,75.72
2023-05-17T02:51:40.116Z,81.18
2023-05-17T02:52:40.153Z,81.09
2023-05-17T02:53:40.188Z,77.51
2023-05-17T02:54:40.223Z,80.35
2023-05-17T02:55:40.248Z,77.39
2023-05-17T02:56:40.389Z,75.20
2023-05-17T02:57:40.413Z,77.67
2023-05-17T02:58:40.444Z,74.90
2023-05-17T02:59:40.466Z,75.18
2023-05-17T03:00:40.497Z,77.43
2023-05-17T03:01:40.536Z,76.34
2023-05-17T03:02:40.605Z,78.52
2023-05-17T03:03:40.977Z,76.23
2023-05-17T03:04:40.697Z,74.48
2023-05-17T03:05:40.636Z,75.81
2023-05-17T03:06:40.678Z,72.14
2023-05-17T03:07:40.719Z,73.12
2023-05-17T03:08:40.761Z,76.91
2023-05-17T03:09:40.787Z,71.44
2023-05-17T03:10:40.824Z,73.82
2023-05-17T03:11:40.920Z,73.68
2023-05-17T03:12:40.896Z,74.62
2023-05-17T03:13:40.924Z,75.82
2023-05-17T03:14:40.965Z,76.60
2023-05-17T03:15:40.996Z,73.63
2023-05-17T03:16:41.023Z,74.88
2023-05-17T03:17:41.104Z,74.52
2023-05-17T03:18:41.230Z,73.03
2023-05-17T03:19:41.313Z,74.13
2023-05-17T03:20:41.176Z,74.05
2023-05-17T03:21:41.292Z,71.81
2023-05-17T03:22:41.306Z,73.55
2023-05-17T03:23:41.328Z,69.05
2023-05-17T03:24:41.358Z,70.83
2023-05-17T03:25:41.392Z,71.52
2023-05-17T03:26:41.421Z,72.37
2023-05-17T03:27:41.469Z,74.86
2023-05-17T03:28:41.482Z,72.57
2023-05-17T03:29:41.518Z,72.17
2023-05-17T03:30:41.578Z,70.70
2023-05-17T03:31:41.580Z,76.00
2023-05-17T03:32:41.804Z,72.37
2023-05-17T03:33:41.793Z,72.75
2023-05-17T03:34:41.795Z,68.45
2023-05-17T03:35:41.843Z,71.13
2023-05-17T03:36:41.865Z,71.33
2023-05-17T03:37:41.927Z,70.67
2023-05-17T03:38:41.998Z,68.52
2023-05-17T03:39:42.041Z,69.78
2023-05-17T03:40:42.059Z,69.60
2023-05-17T03:41:42.147Z,71.47
2023-05-17T03:42:42.127Z,70.54
2023-05-17T03:43:42.226Z,66.01
2023-05-17T03:44:42.252Z,70.97
2023-05-17T03:45:42.293Z,69.22
2023-05-17T03:46:42.323Z,68.29
2023-05-17T03:47:42.391Z,65.15
2023-05-17T03:48:42.426Z,69.68
2023-05-17T03:49:42.450Z,67.09
2023-05-17T03:50:42.466Z,63.57
2023-05-17T03:51:42.553Z,68.79
2023-05-17T03:52:42.526Z,67.32
2023-05-17T03:53:42.614Z,65.83
2023-05-17T03:54:42.658Z,67.02
2023-05-17T03:55:42.735Z,66.43
2023-05-17T03:56:42.731Z,63.49
2023-05-17T03:57:42.837Z,64.63
2023-05-17T03:58:42.863Z,65.50
2023-05-17T03:59:42.898Z,64.21
2023-05-17T04:00:42.940Z,63.27
2023-05-17T04:01:42.960Z,64.16
2023-05-17T04:02:43.053Z,64.96
2023-05-17T04:03:43.047Z,66.32
2023-05-17T04:04:43.084Z,66.26
2023-05-17T04:05:43.094Z,62.91
2023-05-17T04:06:43.131Z,64.60
2023-05-17T04:07:43.283Z,65.05
2023-05-17T04:08:43.275Z,63.10
2023-05-17T04:09:43.227Z,63.92
2023-05-17T04:10:43.294Z,62.56
2023-05-17T04:11:43.297Z,62.67
2023-05-17T04:12:43.485Z,61.45
2023-05-17T04:13:43.356Z,59.50
2023-05-17T04:14:43.401Z,62.00
2023-05-17T04:15:43.441Z,61.04
2023-05-17T04:16:43.465Z,60.20
2023-05-17T04:17:43.588Z,59.19
2023-05-17T04:18:43.658Z,60.09
2023-05-17T04:19:43.645Z,61.21
2023-05-17T04:20:43.599Z,62.15
2023-05-17T04:21:43.633Z,60.52
2023-05-17T04:22:43.673Z,59.67
2023-05-17T04:23:43.773Z,59.89
2023-05-17T04:24:43.743Z,58.12
2023-05-17T04:25:43.781Z,57.95
2023-05-17T04:26:43.811Z,62.44
2023-05-17T04:27:43.839Z,58.07
2023-05-17T04:28:43.887Z,58.20
2023-05-17T04:29:43.894Z,58.53
2023-05-17T04:30:44.022Z,56.91
2023-05-17T04:31:44.043Z,56.94
2023-05-17T04:32:44.112Z,57.70
2023-05-17T04:33:44.153Z,55.61
2023-05-17T04:34:44.144Z,59.01
2023-05-17T04:35:44.182Z,55.26
2023-05-17T04:36:44.206Z,56.05
2023-05-17T04:37:44.246Z,57.36
2023-05-17T04:38:44.287Z,57.52
2023-05-17T04:39:44.393Z,57.70
2023-05-17T04:40:44.354Z,56.56
2023-05-17T04:41:44.400Z,57.59
2023-05-17T04:42:44.426Z,54.40
2023-05-17T04:43:44.455Z,56.38
2023-05-17T04:44:44.504Z,54.20
2023-05-17T04:45:44.537Z,55.32
2023-05-17T04:46:44.576Z,56.97
2023-05-17T04:47:44.672Z,54.67
2023-05-17T04:48:44.711Z,51.23
2023-05-17T04:49:44.685Z,55.67
2023-05-17T04:50:44.778Z,53.69
2023-05-17T04:51:44.827Z,53.03
2023-05-17T04:52:44.863Z,47.78
2023-05-17T04:53:44.898Z,52.82
2023-05-17T04:54:44.938Z,52.68
2023-05-17T04:55:45.058Z,53.06
2023-05-17T04:56:45.024Z,50.22
2023-05-17T04:57:45.054Z,50.22
2023-05-17T04:58:45.098Z,49.19
2023-05-17T04:59:45.180Z,49.98
2023-05-17T05:00:45.176Z,51.60
2023-05-17T05:01:45.207Z,50.65
2023-05-17T05:02:45.257Z,50.12
2023-05-17T05:03:45.309Z,50.49
2023-05-17T05:04:45.384Z,51.37
2023-05-17T05:05:45.339Z,47.95
2023-05-17T05:06:45.378Z,49.37
2023-05-17T05:07:45.404Z,50.86
2023-05-17T05:08:45.451Z,49.37
2023-05-17T05:09:45.490Z,47.69
2023-05-17T05:10:45.534Z,45.54
2023-05-17T05:11:45.622Z,48.85
2023-05-17T05:12:45.589Z,45.84
2023-05-17T05:13:45.635Z,45.40
2023-05-17T05:14:45.670Z,46.00
2023-05-17T05:15:45.724Z,44.43
2023-05-17T05:16:45.740Z,46.50
2023-05-17T05:17:45.825Z,44.32
2023-05-17T05:18:45.942Z,45.63
2023-05-17T05:19:45.872Z,44.11
2023-05-17T05:20:45.854Z,45.83
2023-05-17T05:21:45.989Z,42.66
2023-05-17T05:22:46.069Z,46.71
2023-05-17T05:23:46.048Z,46.48
2023-05-17T05:24:45.986Z,43.95
2023-05-17T05:25:46.035Z,45.51
2023-05-17T05:26:46.078Z,47.95
2023-05-17T05:27:46.110Z,49.24
2023-05-17T05:28:46.145Z,53.66
2023-05-17T05:29:46.160Z,54.79
2023-05-17T05:30:46.212Z,59.98
2023-05-17T05:31:46.233Z,60.30
2023-05-17T05:32:46.325Z,59.56
2023-05-17T05:33:46.944Z,59.91
2023-05-17T05:34:46.300Z,59.15
2023-05-17T05:35:46.341Z,59.94
2023-05-17T05:36:46.354Z,58.51
2023-05-17T05:37:47.374Z,59.59
2023-05-17T05:38:46.417Z,61.11
2023-05-17T05:39:46.484Z,53.39
2023-05-17T05:40:46.476Z,47.60
2023-05-17T05:41:46.515Z,47.67
2023-05-17T05:42:46.622Z,44.25
2023-05-17T05:43:46.757Z,38.13
2023-05-17T05:44:46.658Z,40.06
2023-05-17T05:45:46.695Z,40.12
2023-05-17T05:46:46.699Z,39.33
2023-05-17T05:47:46.920Z,39.63
2023-05-17T05:48:46.926Z,39.60
2023-05-17T05:49:46.892Z,40.78
2023-05-17T05:50:46.901Z,39.41
2023-05-17T05:51:46.934Z,38.14
2023-05-17T05:52:47.106Z,39.05
2023-05-17T05:53:47.049Z,40.11
2023-05-17T05:54:47.080Z,39.11
2023-05-17T05:55:47.102Z,39.23
2023-05-17T05:56:47.210Z,40.61
2023-05-17T05:57:47.246Z,41.69
2023-05-17T05:58:47.258Z,37.70
2023-05-17T05:59:47.334Z,39.18
2023-05-17T06:00:47.298Z,36.15
2023-05-17T06:01:47.330Z,33.02
2023-05-17T06:02:47.428Z,35.30
2023-05-17T06:03:47.412Z,33.14
2023-05-17T06:04:47.443Z,30.51
2023-05-17T06:05:47.536Z,28.33
2023-05-17T06:06:47.583Z,28.92
2023-05-17T06:07:47.521Z,29.77
2023-05-17T06:08:47.574Z,31.41
2023-05-17T06:09:47.575Z,33.87
2023-05-17T06:10:47.612Z,32.65
2023-05-17T06:11:47.644Z,32.89
2023-05-17T06:12:47.767Z,33.47
